York — WDF7289 — position and weather

sailwx.info

Track history (hours):
 
Tides and Currents Weather Stations Pressure Air Temp Water Temp Dewpoint Dewpoint Depression Visibility Wind Speed Wind Dir Waves Ship Positions

York

Owner: BillyBey Ferry Company, Weehawken, NJ. More information available from US FCC via Universal Licensing System and Coast Guard Vessel Documentation Center.

Last reported at 2017-Sep-22 00:31 UTC. Time now 2017-Sep-22 19:00 UTC.
Position N 40°44' W 074°02'.

Length 24 m.

Type: Passenger vessel. MMSI: 367482990.

Date/timePositionNaut miles runAvg speedWind from/ knotsBaromVisibWave heightAir tempDewpointWater temp
2017-Sep-22 00:31N 40°44' W 074°02'0 0.0
2017-Sep-22 00:30N 40°44' W 074°02'2 4.6
2017-Sep-22 00:00N 40°46' W 074°01'3 7.0
2017-Sep-21 23:30N 40°43' W 074°02'0 0.1
2017-Sep-21 23:00N 40°43' W 074°02'0 0.1
2017-Sep-21 22:30N 40°43' W 074°02'0 0.2
2017-Sep-21 22:00N 40°43' W 074°02'0 0.1
2017-Sep-21 21:30N 40°43' W 074°02'0 0.0
2017-Sep-21 21:00N 40°43' W 074°02'0 0.2
2017-Sep-21 20:30N 40°43' W 074°02'0 0.2
2017-Sep-21 20:00N 40°43' W 074°02'0 0.1
2017-Sep-21 19:30N 40°43' W 074°02'0 0.1
2017-Sep-21 19:00N 40°43' W 074°02'0 0.0
2017-Sep-21 18:31N 40°43' W 074°02'0 0.0
2017-Sep-21 18:01N 40°43' W 074°02'0 0.0
2017-Sep-21 17:30N 40°43' W 074°02'0 0.0
2017-Sep-21 17:00N 40°43' W 074°02'0 0.0
2017-Sep-21 16:31N 40°43' W 074°02'0 0.2
2017-Sep-21 16:01N 40°43' W 074°02'0 0.2
2017-Sep-21 15:31N 40°43' W 074°02'0 0.0
2017-Sep-21 15:01N 40°43' W 074°02'0 0.2
2017-Sep-21 14:31N 40°43' W 074°02'0 0.2
2017-Sep-21 14:01N 40°43' W 074°02'0 0.0
2017-Sep-21 13:30N 40°43' W 074°02'0 0.0
2017-Sep-21 13:00N 40°43' W 074°02'0 0.2
2017-Sep-21 12:30N 40°43' W 074°02'0 0.0
2017-Sep-21 12:00N 40°43' W 074°02'0 0.0
2017-Sep-21 11:31N 40°43' W 074°02'0 0.1
2017-Sep-21 11:00N 40°43' W 074°02'0 0.0
2017-Sep-21 10:30N 40°43' W 074°02'0 0.1
2017-Sep-21 10:00N 40°43' W 074°02'1 0.2
2017-Sep-21 03:10N 40°44' W 074°02'1 7.9
2017-Sep-21 03:00N 40°43' W 074°01'0 0.9
2017-Sep-21 02:30N 40°43' W 074°02'1 1.1
2017-Sep-21 02:01N 40°43' W 074°01'1 1.2
2017-Sep-21 01:31N 40°43' W 074°02'1 1.2
2017-Sep-21 01:00N 40°43' W 074°01'1 1.3
2017-Sep-21 00:30N 40°43' W 074°02'1 1.3
2017-Sep-21 00:00N 40°43' W 074°01'0 0.0
2017-Sep-20 23:30N 40°43' W 074°01'0 0.0
2017-Sep-20 23:01N 40°43' W 074°01'0 0.1
2017-Sep-20 22:31N 40°43' W 074°01'0 0.1
2017-Sep-20 22:00N 40°43' W 074°01'0 0.0
2017-Sep-20 21:30N 40°43' W 074°01'0 0.0
2017-Sep-20 21:00N 40°43' W 074°01'0 0.0
2017-Sep-20 20:30N 40°43' W 074°01'0 0.0
2017-Sep-20 20:00N 40°43' W 074°01'0 0.0
2017-Sep-20 19:30N 40°43' W 074°01'0 0.1
2017-Sep-20 19:00N 40°43' W 074°01'0 0.1
2017-Sep-20 18:30N 40°43' W 074°01'0 0.0
2017-Sep-20 18:00N 40°43' W 074°01'0 0.2
2017-Sep-20 17:30N 40°43' W 074°01'0 0.1
2017-Sep-20 17:00N 40°43' W 074°01'0 0.1
2017-Sep-20 16:30N 40°43' W 074°01'0 0.1
2017-Sep-20 16:00N 40°43' W 074°01'0 0.0
2017-Sep-20 15:31N 40°43' W 074°01'0 0.0
2017-Sep-20 15:01N 40°43' W 074°01'0 0.0
2017-Sep-20 14:01N 40°43' W 074°01'0 0.0
2017-Sep-20 13:30N 40°43' W 074°01'0 0.0
2017-Sep-20 13:00N 40°43' W 074°01'0 0.0
2017-Sep-20 12:30N 40°43' W 074°01'0 0.0
2017-Sep-20 12:00N 40°43' W 074°01'0 0.0
2017-Sep-20 11:31N 40°43' W 074°01'0 0.0
2017-Sep-20 11:01N 40°43' W 074°01'0 0.0
2017-Sep-20 10:31N 40°43' W 074°01'1 0.1
2017-Sep-20 00:38N 40°44' W 074°02'1 5.9
2017-Sep-20 00:30N 40°45' W 074°01'2 3.2
2017-Sep-20 00:00N 40°46' W 074°01'4 7.2
2017-Sep-19 23:30N 40°43' W 074°02'0 0.2
2017-Sep-19 23:00N 40°43' W 074°02'0 0.0
2017-Sep-19 22:30N 40°43' W 074°02'0 0.0
2017-Sep-19 22:01N 40°43' W 074°02'0 0.4
2017-Sep-19 21:31N 40°43' W 074°02'0 0.3
2017-Sep-19 21:00N 40°43' W 074°02'0 0.1
2017-Sep-19 20:30N 40°43' W 074°02'0 0.1
2017-Sep-19 20:00N 40°43' W 074°02'0 0.1
2017-Sep-19 19:31N 40°43' W 074°02'0 0.0
2017-Sep-19 19:01N 40°43' W 074°02'0 0.1
2017-Sep-19 18:30N 40°43' W 074°02'0 0.1
2017-Sep-19 18:00N 40°43' W 074°02'0 0.0
2017-Sep-19 17:30N 40°43' W 074°02'0 0.1
2017-Sep-19 17:00N 40°43' W 074°02'0 0.1
2017-Sep-19 16:30N 40°43' W 074°02'0 0.1
2017-Sep-19 16:00N 40°43' W 074°02'0 0.1
2017-Sep-19 15:30N 40°43' W 074°02'0 0.1
2017-Sep-19 15:00N 40°43' W 074°02'0 0.2
2017-Sep-19 14:30N 40°43' W 074°02'0 0.2
2017-Sep-19 14:00N 40°43' W 074°02'0 0.2
2017-Sep-19 13:30N 40°43' W 074°02'0 0.2
2017-Sep-19 13:00N 40°43' W 074°02'0 0.2
2017-Sep-19 12:30N 40°43' W 074°02'0 0.2
2017-Sep-19 12:00N 40°43' W 074°02'0 0.1
2017-Sep-19 11:31N 40°43' W 074°02'0 0.1
2017-Sep-19 11:00N 40°43' W 074°02'0 0.1
2017-Sep-19 10:30N 40°43' W 074°02'0 0.0
2017-Sep-19 10:00N 40°43' W 074°02'1 0.2
2017-Sep-19 03:10N 40°44' W 074°02'1 7.8
2017-Sep-19 03:01N 40°43' W 074°01'0 0.8
2017-Sep-19 02:31N 40°43' W 074°02'1 1.0
2017-Sep-19 02:00N 40°43' W 074°01'1 1.3
2017-Sep-19 01:30N 40°43' W 074°02'1 1.3
2017-Sep-19 01:00N 40°43' W 074°01'1 1.1
2017-Sep-19 00:30N 40°43' W 074°02'1 1.1
2017-Sep-19 00:01N 40°43' W 074°01'0 0.1
2017-Sep-18 23:30N 40°43' W 074°01'0 0.1
2017-Sep-18 23:00N 40°43' W 074°01'0 0.0
2017-Sep-18 22:30N 40°43' W 074°01'0 0.0
2017-Sep-18 22:00N 40°43' W 074°01'0 0.0
2017-Sep-18 21:30N 40°43' W 074°01'0 0.0
2017-Sep-18 21:00N 40°43' W 074°01'0 0.0
2017-Sep-18 20:30N 40°43' W 074°01'0 0.0
2017-Sep-18 20:01N 40°43' W 074°01'0 0.0
2017-Sep-18 19:31N 40°43' W 074°01'0 0.0
2017-Sep-18 19:00N 40°43' W 074°01'0 0.0
2017-Sep-18 18:31N 40°43' W 074°01'0 0.0
2017-Sep-18 18:00N 40°43' W 074°01'0 0.0
2017-Sep-18 17:30N 40°43' W 074°01'0 0.0
2017-Sep-18 17:00N 40°43' W 074°01'0 0.0
2017-Sep-18 16:30N 40°43' W 074°01'0 0.0
2017-Sep-18 16:01N 40°43' W 074°01'0 0.0
2017-Sep-18 15:31N 40°43' W 074°01'0 0.0
2017-Sep-18 15:01N 40°43' W 074°01'0 0.0
2017-Sep-18 14:31N 40°43' W 074°01'0 0.0
2017-Sep-18 14:01N 40°43' W 074°01'0 0.0
2017-Sep-18 13:30N 40°43' W 074°01'0 0.0
2017-Sep-18 13:00N 40°43' W 074°01'0 0.0
2017-Sep-18 12:30N 40°43' W 074°01'0 0.0
2017-Sep-18 12:00N 40°43' W 074°01'0 0.0
2017-Sep-18 11:30N 40°43' W 074°01'0 0.0
2017-Sep-18 11:00N 40°43' W 074°01'0 0.2
2017-Sep-18 10:30N 40°43' W 074°01'3 6.9
2017-Sep-18 10:00N 40°46' W 074°01'0 0.0
2017-Sep-18 09:30N 40°46' W 074°01'0 0.0
2017-Sep-18 09:00N 40°46' W 074°01'0 0.0
2017-Sep-18 08:30N 40°46' W 074°01'0 0.0
2017-Sep-18 08:00N 40°46' W 074°01'0 0.0
2017-Sep-18 07:30N 40°46' W 074°01'0 0.0
2017-Sep-18 07:00N 40°46' W 074°01'0 0.0
2017-Sep-18 06:30N 40°46' W 074°01'0 0.0
2017-Sep-18 06:00N 40°46' W 074°01'0 0.0
2017-Sep-18 05:30N 40°46' W 074°01'0 0.0
2017-Sep-18 05:00N 40°46' W 074°01'0 0.0
2017-Sep-18 04:30N 40°46' W 074°01'0 0.0
2017-Sep-18 04:00N 40°46' W 074°01'0 0.0
2017-Sep-18 03:30N 40°46' W 074°01'0 0.0
2017-Sep-18 03:00N 40°46' W 074°01'0 0.0
2017-Sep-18 02:30N 40°46' W 074°01'0 0.0
2017-Sep-18 02:00N 40°46' W 074°01'0 0.0
2017-Sep-18 01:30N 40°46' W 074°01'0 0.0
2017-Sep-18 01:01N 40°46' W 074°01'0 0.0
2017-Sep-18 00:31N 40°46' W 074°01'0 0.0
2017-Sep-18 00:00N 40°46' W 074°01'0 0.0
2017-Sep-17 23:30N 40°46' W 074°01'0 0.0
2017-Sep-17 23:00N 40°46' W 074°01'0 0.0
2017-Sep-17 22:30N 40°46' W 074°01'0 0.0
2017-Sep-17 22:00N 40°46' W 074°01'0 0.0
2017-Sep-17 21:30N 40°46' W 074°01'0 0.0
2017-Sep-17 21:00N 40°46' W 074°01'0 0.0
2017-Sep-17 20:30N 40°46' W 074°01'0 0.0
2017-Sep-17 20:00N 40°46' W 074°01'0 0.0
2017-Sep-17 19:30N 40°46' W 074°01'0 0.0
2017-Sep-17 19:00N 40°46' W 074°01'0 0.0
2017-Sep-17 18:30N 40°46' W 074°01'0 0.0
2017-Sep-17 18:00N 40°46' W 074°01'0 0.0
2017-Sep-17 17:30N 40°46' W 074°01'0 0.0
2017-Sep-17 17:00N 40°46' W 074°01'0 0.0
2017-Sep-17 16:30N 40°46' W 074°01'0 0.0
2017-Sep-17 16:01N 40°46' W 074°01'0 0.0
2017-Sep-17 15:30N 40°46' W 074°01'0 0.0
2017-Sep-17 15:00N 40°46' W 074°01'0 0.0
2017-Sep-17 07:36N 40°46' W 074°01'0 0.0
2017-Sep-17 07:30N 40°46' W 074°01'0 0.0
2017-Sep-17 07:00N 40°46' W 074°01'0 0.0
2017-Sep-16 03:37N 40°46' W 074°01'0 0.0
2017-Sep-16 03:30N 40°46' W 074°01'3 6.9
2017-Sep-16 03:00N 40°43' W 074°01'1 1.3
2017-Sep-16 02:31N 40°43' W 074°02'1 1.3
2017-Sep-16 02:00N 40°43' W 074°01'1 1.2
2017-Sep-16 01:30N 40°43' W 074°02'1 1.3
2017-Sep-16 01:00N 40°43' W 074°01'1 1.3
2017-Sep-16 00:30N 40°43' W 074°02'0 0.8
2017-Sep-16 00:01N 40°43' W 074°01'0 0.7
2017-Sep-15 23:30N 40°43' W 074°01'0 0.0
2017-Sep-15 23:01N 40°43' W 074°01'0 0.0
2017-Sep-15 22:30N 40°43' W 074°01'0 0.0
2017-Sep-15 22:00N 40°43' W 074°01'0 0.0
2017-Sep-15 21:30N 40°43' W 074°01'0 0.0
2017-Sep-15 21:01N 40°43' W 074°01'0 0.0
2017-Sep-15 20:30N 40°43' W 074°01'0 0.0
2017-Sep-15 20:00N 40°43' W 074°01'0 0.0
2017-Sep-15 19:31N 40°43' W 074°01'0 0.0
2017-Sep-15 19:00N 40°43' W 074°01'0 0.0
2017-Sep-15 18:30N 40°43' W 074°01'0 0.0
2017-Sep-15 18:00N 40°43' W 074°01'0 0.0
2017-Sep-15 17:30N 40°43' W 074°01'0 0.1
2017-Sep-15 17:01N 40°43' W 074°01'0 0.1
2017-Sep-15 16:30N 40°43' W 074°01'0 0.0
2017-Sep-15 16:00N 40°43' W 074°01'0 0.0
2017-Sep-15 15:30N 40°43' W 074°01'0 0.0
2017-Sep-15 15:00N 40°43' W 074°01'0 0.0
2017-Sep-15 14:30N 40°43' W 074°01'0 0.0
2017-Sep-15 14:00N 40°43' W 074°01'0 0.0
2017-Sep-15 13:30N 40°43' W 074°01'0 0.0
2017-Sep-15 13:00N 40°43' W 074°01'0 0.1
2017-Sep-15 12:31N 40°43' W 074°01'0 0.0
2017-Sep-15 12:01N 40°43' W 074°01'0 0.0
2017-Sep-15 11:31N 40°43' W 074°01'0 0.0
2017-Sep-15 11:00N 40°43' W 074°01'0 0.0
2017-Sep-15 10:30N 40°43' W 074°01'1 0.1
2017-Sep-15 00:29N 40°44' W 074°02'2 4.7
2017-Sep-15 00:00N 40°46' W 074°01'4 7.1
2017-Sep-14 23:30N 40°43' W 074°02'0 0.0
2017-Sep-14 23:01N 40°43' W 074°02'0 0.0
2017-Sep-14 22:30N 40°43' W 074°02'0 0.0
2017-Sep-14 22:01N 40°43' W 074°02'0 0.0
2017-Sep-14 21:30N 40°43' W 074°02'0 0.2
2017-Sep-14 21:00N 40°43' W 074°02'0 0.2
2017-Sep-14 20:30N 40°43' W 074°02'0 0.0
2017-Sep-14 20:00N 40°43' W 074°02'0 0.6
2017-Sep-14 19:31N 40°43' W 074°02'0 0.5
2017-Sep-14 19:00N 40°43' W 074°02'0 0.1
2017-Sep-14 18:30N 40°43' W 074°02'0 0.0
2017-Sep-14 18:00N 40°43' W 074°02'0 0.0
2017-Sep-14 17:30N 40°43' W 074°02'0 0.0
2017-Sep-14 17:00N 40°43' W 074°02'0 0.0
2017-Sep-14 16:30N 40°43' W 074°02'0 0.0
2017-Sep-14 16:00N 40°43' W 074°02'0 0.1
2017-Sep-14 15:30N 40°43' W 074°02'0 0.0
2017-Sep-14 15:01N 40°43' W 074°02'0 0.2
2017-Sep-14 14:31N 40°43' W 074°02'0 0.1
2017-Sep-14 14:00N 40°43' W 074°02'0 0.2
2017-Sep-14 13:30N 40°43' W 074°02'0 0.1
2017-Sep-14 13:00N 40°43' W 074°02'0 0.1
2017-Sep-14 12:30N 40°43' W 074°02'0 0.1
2017-Sep-14 12:00N 40°43' W 074°02'0 0.1
2017-Sep-14 11:31N 40°43' W 074°02'0 0.0
2017-Sep-14 11:00N 40°43' W 074°02'0 0.1
2017-Sep-14 10:30N 40°43' W 074°02'0 0.2
2017-Sep-14 10:01N 40°43' W 074°02'1 0.2
2017-Sep-14 03:11N 40°44' W 074°02'1 7.1
2017-Sep-14 03:00N 40°43' W 074°01'0 1.0
2017-Sep-14 02:30N 40°43' W 074°02'1 1.1
2017-Sep-14 02:00N 40°43' W 074°01'1 1.3
2017-Sep-14 01:31N 40°43' W 074°02'1 1.2
2017-Sep-14 01:00N 40°43' W 074°01'1 1.2
2017-Sep-14 00:30N 40°43' W 074°02'1 1.3
2017-Sep-14 00:00N 40°43' W 074°01'0 0.0
2017-Sep-13 23:30N 40°43' W 074°01'0 0.0
2017-Sep-13 23:01N 40°43' W 074°01'0 0.0
2017-Sep-13 22:30N 40°43' W 074°01'0 0.0
2017-Sep-13 22:00N 40°43' W 074°01'0 0.0
2017-Sep-13 21:30N 40°43' W 074°01'0 0.0
2017-Sep-13 21:00N 40°43' W 074°01'0 0.0
2017-Sep-13 20:30N 40°43' W 074°01'0 0.0
2017-Sep-13 20:00N 40°43' W 074°01'0 0.0
2017-Sep-13 19:30N 40°43' W 074°01'0 0.0
2017-Sep-13 19:00N 40°43' W 074°01'0 0.0
2017-Sep-13 18:30N 40°43' W 074°01'0 0.0
2017-Sep-13 18:01N 40°43' W 074°01'0 0.0
2017-Sep-13 17:31N 40°43' W 074°01'0 0.1
2017-Sep-13 17:00N 40°43' W 074°01'0 0.0
2017-Sep-13 16:30N 40°43' W 074°01'0 0.0
2017-Sep-13 16:00N 40°43' W 074°01'0 0.0
2017-Sep-13 15:30N 40°43' W 074°01'0 0.0
2017-Sep-13 15:00N 40°43' W 074°01'0 0.0
2017-Sep-13 14:30N 40°43' W 074°01'0 0.1
2017-Sep-13 14:00N 40°43' W 074°01'0 0.1
2017-Sep-13 13:30N 40°43' W 074°01'0 0.0
2017-Sep-13 13:00N 40°43' W 074°01'0 0.0
2017-Sep-13 12:30N 40°43' W 074°01'0 0.0
2017-Sep-13 12:00N 40°43' W 074°01'0 0.1
2017-Sep-13 11:30N 40°43' W 074°01'0 0.1
2017-Sep-13 11:00N 40°43' W 074°01'0 0.0
2017-Sep-13 10:31N 40°43' W 074°01'1 0.1
2017-Sep-13 00:27N 40°44' W 074°02'2 5.0
2017-Sep-13 00:00N 40°46' W 074°01'4 7.0
2017-Sep-12 23:30N 40°43' W 074°02'0 0.1
2017-Sep-12 23:00N 40°43' W 074°02'0 0.1
2017-Sep-12 22:30N 40°43' W 074°02'0 0.1
2017-Sep-12 22:00N 40°43' W 074°02'0 0.2
2017-Sep-12 21:30N 40°43' W 074°02'0 0.0
2017-Sep-12 21:00N 40°43' W 074°02'0 0.2
2017-Sep-12 20:30N 40°43' W 074°02'0 0.3
2017-Sep-12 20:00N 40°43' W 074°02'0 0.2
2017-Sep-12 19:30N 40°43' W 074°02'0 0.2
2017-Sep-12 19:00N 40°43' W 074°02'0 0.1
2017-Sep-12 18:30N 40°43' W 074°02'0 0.0
2017-Sep-12 18:00N 40°43' W 074°02'0 0.2
2017-Sep-12 17:30N 40°43' W 074°02'0 0.1
2017-Sep-12 17:00N 40°43' W 074°02'0 0.1
2017-Sep-12 16:30N 40°43' W 074°02'0 0.2
2017-Sep-12 16:00N 40°43' W 074°02'0 0.2
2017-Sep-12 15:30N 40°43' W 074°02'0 0.0
2017-Sep-12 15:00N 40°43' W 074°02'0 0.1
2017-Sep-12 14:30N 40°43' W 074°02'0 0.1
2017-Sep-12 14:00N 40°43' W 074°02'0 0.1
2017-Sep-12 13:30N 40°43' W 074°02'0 0.0
2017-Sep-12 13:01N 40°43' W 074°02'0 0.1
2017-Sep-12 12:31N 40°43' W 074°02'0 0.2
2017-Sep-12 12:00N 40°43' W 074°02'0 0.1
2017-Sep-12 11:30N 40°43' W 074°02'0 0.2
2017-Sep-12 11:01N 40°43' W 074°02'0 0.1
2017-Sep-12 10:30N 40°43' W 074°02'0 0.1
2017-Sep-12 10:00N 40°43' W 074°02'1 0.2
2017-Sep-12 03:14N 40°44' W 074°02'1 5.8
2017-Sep-12 03:01N 40°43' W 074°01'1 1.3
2017-Sep-12 02:30N 40°43' W 074°02'1 1.3
2017-Sep-12 02:01N 40°43' W 074°01'1 1.1
2017-Sep-12 01:30N 40°43' W 074°02'1 1.1
2017-Sep-12 01:01N 40°43' W 074°01'  
Track history (hours):
 
Tides and Currents Weather Stations Pressure Air Temp Water Temp Dewpoint Dewpoint Depression Visibility Wind Speed Wind Dir Waves Ship Positions

York

Owner: BillyBey Ferry Company, Weehawken, NJ. More information available from US FCC via Universal Licensing System and Coast Guard Vessel Documentation Center.

Last reported at 2017-Sep-22 00:31 UTC. Time now 2017-Sep-22 19:00 UTC.
Position N 40°44' W 074°02'.

Length 24 m.

Type: Passenger vessel. MMSI: 367482990.

Date/timePositionNaut miles runAvg speedWind from/ knotsBaromVisibWave heightAir tempDewpointWater temp
2017-Sep-22 00:31N 40°44' W 074°02'0 0.0
2017-Sep-22 00:30N 40°44' W 074°02'2 4.6
2017-Sep-22 00:00N 40°46' W 074°01'3 7.0
2017-Sep-21 23:30N 40°43' W 074°02'0 0.1
2017-Sep-21 23:00N 40°43' W 074°02'0 0.1
2017-Sep-21 22:30N 40°43' W 074°02'0 0.2
2017-Sep-21 22:00N 40°43' W 074°02'0 0.1
2017-Sep-21 21:30N 40°43' W 074°02'0 0.0
2017-Sep-21 21:00N 40°43' W 074°02'0 0.2
2017-Sep-21 20:30N 40°43' W 074°02'0 0.2
2017-Sep-21 20:00N 40°43' W 074°02'0 0.1
2017-Sep-21 19:30N 40°43' W 074°02'0 0.1
2017-Sep-21 19:00N 40°43' W 074°02'0 0.0
2017-Sep-21 18:31N 40°43' W 074°02'0 0.0
2017-Sep-21 18:01N 40°43' W 074°02'0 0.0
2017-Sep-21 17:30N 40°43' W 074°02'0 0.0
2017-Sep-21 17:00N 40°43' W 074°02'0 0.0
2017-Sep-21 16:31N 40°43' W 074°02'0 0.2
2017-Sep-21 16:01N 40°43' W 074°02'0 0.2
2017-Sep-21 15:31N 40°43' W 074°02'0 0.0
2017-Sep-21 15:01N 40°43' W 074°02'0 0.2
2017-Sep-21 14:31N 40°43' W 074°02'0 0.2
2017-Sep-21 14:01N 40°43' W 074°02'0 0.0
2017-Sep-21 13:30N 40°43' W 074°02'0 0.0
2017-Sep-21 13:00N 40°43' W 074°02'0 0.2
2017-Sep-21 12:30N 40°43' W 074°02'0 0.0
2017-Sep-21 12:00N 40°43' W 074°02'0 0.0
2017-Sep-21 11:31N 40°43' W 074°02'0 0.1
2017-Sep-21 11:00N 40°43' W 074°02'0 0.0
2017-Sep-21 10:30N 40°43' W 074°02'0 0.1
2017-Sep-21 10:00N 40°43' W 074°02'1 0.2
2017-Sep-21 03:10N 40°44' W 074°02'1 7.9
2017-Sep-21 03:00N 40°43' W 074°01'0 0.9
2017-Sep-21 02:30N 40°43' W 074°02'1 1.1
2017-Sep-21 02:01N 40°43' W 074°01'1 1.2
2017-Sep-21 01:31N 40°43' W 074°02'1 1.2
2017-Sep-21 01:00N 40°43' W 074°01'1 1.3
2017-Sep-21 00:30N 40°43' W 074°02'1 1.3
2017-Sep-21 00:00N 40°43' W 074°01'0 0.0
2017-Sep-20 23:30N 40°43' W 074°01'0 0.0
2017-Sep-20 23:01N 40°43' W 074°01'0 0.1
2017-Sep-20 22:31N 40°43' W 074°01'0 0.1
2017-Sep-20 22:00N 40°43' W 074°01'0 0.0
2017-Sep-20 21:30N 40°43' W 074°01'0 0.0
2017-Sep-20 21:00N 40°43' W 074°01'0 0.0
2017-Sep-20 20:30N 40°43' W 074°01'0 0.0
2017-Sep-20 20:00N 40°43' W 074°01'0 0.0
2017-Sep-20 19:30N 40°43' W 074°01'0 0.1
2017-Sep-20 19:00N 40°43' W 074°01'0 0.1
2017-Sep-20 18:30N 40°43' W 074°01'0 0.0
2017-Sep-20 18:00N 40°43' W 074°01'0 0.2
2017-Sep-20 17:30N 40°43' W 074°01'0 0.1
2017-Sep-20 17:00N 40°43' W 074°01'0 0.1
2017-Sep-20 16:30N 40°43' W 074°01'0 0.1
2017-Sep-20 16:00N 40°43' W 074°01'0 0.0
2017-Sep-20 15:31N 40°43' W 074°01'0 0.0
2017-Sep-20 15:01N 40°43' W 074°01'0 0.0
2017-Sep-20 14:01N 40°43' W 074°01'0 0.0
2017-Sep-20 13:30N 40°43' W 074°01'0 0.0
2017-Sep-20 13:00N 40°43' W 074°01'0 0.0
2017-Sep-20 12:30N 40°43' W 074°01'0 0.0
2017-Sep-20 12:00N 40°43' W 074°01'0 0.0
2017-Sep-20 11:31N 40°43' W 074°01'0 0.0
2017-Sep-20 11:01N 40°43' W 074°01'0 0.0
2017-Sep-20 10:31N 40°43' W 074°01'1 0.1
2017-Sep-20 00:38N 40°44' W 074°02'1 5.9
2017-Sep-20 00:30N 40°45' W 074°01'2 3.2
2017-Sep-20 00:00N 40°46' W 074°01'4 7.2
2017-Sep-19 23:30N 40°43' W 074°02'0 0.2
2017-Sep-19 23:00N 40°43' W 074°02'0 0.0
2017-Sep-19 22:30N 40°43' W 074°02'0 0.0
2017-Sep-19 22:01N 40°43' W 074°02'0 0.4
2017-Sep-19 21:31N 40°43' W 074°02'0 0.3
2017-Sep-19 21:00N 40°43' W 074°02'0 0.1
2017-Sep-19 20:30N 40°43' W 074°02'0 0.1
2017-Sep-19 20:00N 40°43' W 074°02'0 0.1
2017-Sep-19 19:31N 40°43' W 074°02'0 0.0
2017-Sep-19 19:01N 40°43' W 074°02'0 0.1
2017-Sep-19 18:30N 40°43' W 074°02'0 0.1
2017-Sep-19 18:00N 40°43' W 074°02'0 0.0
2017-Sep-19 17:30N 40°43' W 074°02'0 0.1
2017-Sep-19 17:00N 40°43' W 074°02'0 0.1
2017-Sep-19 16:30N 40°43' W 074°02'0 0.1
2017-Sep-19 16:00N 40°43' W 074°02'0 0.1
2017-Sep-19 15:30N 40°43' W 074°02'0 0.1
2017-Sep-19 15:00N 40°43' W 074°02'0 0.2
2017-Sep-19 14:30N 40°43' W 074°02'0 0.2
2017-Sep-19 14:00N 40°43' W 074°02'0 0.2
2017-Sep-19 13:30N 40°43' W 074°02'0 0.2
2017-Sep-19 13:00N 40°43' W 074°02'0 0.2
2017-Sep-19 12:30N 40°43' W 074°02'0 0.2
2017-Sep-19 12:00N 40°43' W 074°02'0 0.1
2017-Sep-19 11:31N 40°43' W 074°02'0 0.1
2017-Sep-19 11:00N 40°43' W 074°02'0 0.1
2017-Sep-19 10:30N 40°43' W 074°02'0 0.0
2017-Sep-19 10:00N 40°43' W 074°02'1 0.2
2017-Sep-19 03:10N 40°44' W 074°02'1 7.8
2017-Sep-19 03:01N 40°43' W 074°01'0 0.8
2017-Sep-19 02:31N 40°43' W 074°02'1 1.0
2017-Sep-19 02:00N 40°43' W 074°01'1 1.3
2017-Sep-19 01:30N 40°43' W 074°02'1 1.3
2017-Sep-19 01:00N 40°43' W 074°01'1 1.1
2017-Sep-19 00:30N 40°43' W 074°02'1 1.1
2017-Sep-19 00:01N 40°43' W 074°01'0 0.1
2017-Sep-18 23:30N 40°43' W 074°01'0 0.1
2017-Sep-18 23:00N 40°43' W 074°01'0 0.0
2017-Sep-18 22:30N 40°43' W 074°01'0 0.0
2017-Sep-18 22:00N 40°43' W 074°01'0 0.0
2017-Sep-18 21:30N 40°43' W 074°01'0 0.0
2017-Sep-18 21:00N 40°43' W 074°01'0 0.0
2017-Sep-18 20:30N 40°43' W 074°01'0 0.0
2017-Sep-18 20:01N 40°43' W 074°01'0 0.0
2017-Sep-18 19:31N 40°43' W 074°01'0 0.0
2017-Sep-18 19:00N 40°43' W 074°01'0 0.0
2017-Sep-18 18:31N 40°43' W 074°01'0 0.0
2017-Sep-18 18:00N 40°43' W 074°01'0 0.0
2017-Sep-18 17:30N 40°43' W 074°01'0 0.0
2017-Sep-18 17:00N 40°43' W 074°01'0 0.0
2017-Sep-18 16:30N 40°43' W 074°01'0 0.0
2017-Sep-18 16:01N 40°43' W 074°01'0 0.0
2017-Sep-18 15:31N 40°43' W 074°01'0 0.0
2017-Sep-18 15:01N 40°43' W 074°01'0 0.0
2017-Sep-18 14:31N 40°43' W 074°01'0 0.0
2017-Sep-18 14:01N 40°43' W 074°01'0 0.0
2017-Sep-18 13:30N 40°43' W 074°01'0 0.0
2017-Sep-18 13:00N 40°43' W 074°01'0 0.0
2017-Sep-18 12:30N 40°43' W 074°01'0 0.0
2017-Sep-18 12:00N 40°43' W 074°01'0 0.0
2017-Sep-18 11:30N 40°43' W 074°01'0 0.0
2017-Sep-18 11:00N 40°43' W 074°01'0 0.2
2017-Sep-18 10:30N 40°43' W 074°01'3 6.9
2017-Sep-18 10:00N 40°46' W 074°01'0 0.0
2017-Sep-18 09:30N 40°46' W 074°01'0 0.0
2017-Sep-18 09:00N 40°46' W 074°01'0 0.0
2017-Sep-18 08:30N 40°46' W 074°01'0 0.0
2017-Sep-18 08:00N 40°46' W 074°01'0 0.0
2017-Sep-18 07:30N 40°46' W 074°01'0 0.0
2017-Sep-18 07:00N 40°46' W 074°01'0 0.0
2017-Sep-18 06:30N 40°46' W 074°01'0 0.0
2017-Sep-18 06:00N 40°46' W 074°01'0 0.0
2017-Sep-18 05:30N 40°46' W 074°01'0 0.0
2017-Sep-18 05:00N 40°46' W 074°01'0 0.0
2017-Sep-18 04:30N 40°46' W 074°01'0 0.0
2017-Sep-18 04:00N 40°46' W 074°01'0 0.0
2017-Sep-18 03:30N 40°46' W 074°01'0 0.0
2017-Sep-18 03:00N 40°46' W 074°01'0 0.0
2017-Sep-18 02:30N 40°46' W 074°01'0 0.0
2017-Sep-18 02:00N 40°46' W 074°01'0 0.0
2017-Sep-18 01:30N 40°46' W 074°01'0 0.0
2017-Sep-18 01:01N 40°46' W 074°01'0 0.0
2017-Sep-18 00:31N 40°46' W 074°01'0 0.0
2017-Sep-18 00:00N 40°46' W 074°01'0 0.0
2017-Sep-17 23:30N 40°46' W 074°01'0 0.0
2017-Sep-17 23:00N 40°46' W 074°01'0 0.0
2017-Sep-17 22:30N 40°46' W 074°01'0 0.0
2017-Sep-17 22:00N 40°46' W 074°01'0 0.0
2017-Sep-17 21:30N 40°46' W 074°01'0 0.0
2017-Sep-17 21:00N 40°46' W 074°01'0 0.0
2017-Sep-17 20:30N 40°46' W 074°01'0 0.0
2017-Sep-17 20:00N 40°46' W 074°01'0 0.0
2017-Sep-17 19:30N 40°46' W 074°01'0 0.0
2017-Sep-17 19:00N 40°46' W 074°01'0 0.0
2017-Sep-17 18:30N 40°46' W 074°01'0 0.0
2017-Sep-17 18:00N 40°46' W 074°01'0 0.0
2017-Sep-17 17:30N 40°46' W 074°01'0 0.0
2017-Sep-17 17:00N 40°46' W 074°01'0 0.0
2017-Sep-17 16:30N 40°46' W 074°01'0 0.0
2017-Sep-17 16:01N 40°46' W 074°01'0 0.0
2017-Sep-17 15:30N 40°46' W 074°01'0 0.0
2017-Sep-17 15:00N 40°46' W 074°01'0 0.0
2017-Sep-17 07:36N 40°46' W 074°01'0 0.0
2017-Sep-17 07:30N 40°46' W 074°01'0 0.0
2017-Sep-17 07:00N 40°46' W 074°01'0 0.0
2017-Sep-16 03:37N 40°46' W 074°01'0 0.0
2017-Sep-16 03:30N 40°46' W 074°01'3 6.9
2017-Sep-16 03:00N 40°43' W 074°01'1 1.3
2017-Sep-16 02:31N 40°43' W 074°02'1 1.3
2017-Sep-16 02:00N 40°43' W 074°01'1 1.2
2017-Sep-16 01:30N 40°43' W 074°02'1 1.3
2017-Sep-16 01:00N 40°43' W 074°01'1 1.3
2017-Sep-16 00:30N 40°43' W 074°02'0 0.8
2017-Sep-16 00:01N 40°43' W 074°01'0 0.7
2017-Sep-15 23:30N 40°43' W 074°01'0 0.0
2017-Sep-15 23:01N 40°43' W 074°01'0 0.0
2017-Sep-15 22:30N 40°43' W 074°01'0 0.0
2017-Sep-15 22:00N 40°43' W 074°01'0 0.0
2017-Sep-15 21:30N 40°43' W 074°01'0 0.0
2017-Sep-15 21:01N 40°43' W 074°01'0 0.0
2017-Sep-15 20:30N 40°43' W 074°01'0 0.0
2017-Sep-15 20:00N 40°43' W 074°01'0 0.0
2017-Sep-15 19:31N 40°43' W 074°01'0 0.0
2017-Sep-15 19:00N 40°43' W 074°01'0 0.0
2017-Sep-15 18:30N 40°43' W 074°01'0 0.0
2017-Sep-15 18:00N 40°43' W 074°01'0 0.0
2017-Sep-15 17:30N 40°43' W 074°01'0 0.1
2017-Sep-15 17:01N 40°43' W 074°01'0 0.1
2017-Sep-15 16:30N 40°43' W 074°01'0 0.0
2017-Sep-15 16:00N 40°43' W 074°01'0 0.0
2017-Sep-15 15:30N 40°43' W 074°01'0 0.0
2017-Sep-15 15:00N 40°43' W 074°01'0 0.0
2017-Sep-15 14:30N 40°43' W 074°01'0 0.0
2017-Sep-15 14:00N 40°43' W 074°01'0 0.0
2017-Sep-15 13:30N 40°43' W 074°01'0 0.0
2017-Sep-15 13:00N 40°43' W 074°01'0 0.1
2017-Sep-15 12:31N 40°43' W 074°01'0 0.0
2017-Sep-15 12:01N 40°43' W 074°01'0 0.0
2017-Sep-15 11:31N 40°43' W 074°01'0 0.0
2017-Sep-15 11:00N 40°43' W 074°01'0 0.0
2017-Sep-15 10:30N 40°43' W 074°01'1 0.1
2017-Sep-15 00:29N 40°44' W 074°02'2 4.7
2017-Sep-15 00:00N 40°46' W 074°01'4 7.1
2017-Sep-14 23:30N 40°43' W 074°02'0 0.0
2017-Sep-14 23:01N 40°43' W 074°02'0 0.0
2017-Sep-14 22:30N 40°43' W 074°02'0 0.0
2017-Sep-14 22:01N 40°43' W 074°02'0 0.0
2017-Sep-14 21:30N 40°43' W 074°02'0 0.2
2017-Sep-14 21:00N 40°43' W 074°02'0 0.2
2017-Sep-14 20:30N 40°43' W 074°02'0 0.0
2017-Sep-14 20:00N 40°43' W 074°02'0 0.6
2017-Sep-14 19:31N 40°43' W 074°02'0 0.5
2017-Sep-14 19:00N 40°43' W 074°02'0 0.1
2017-Sep-14 18:30N 40°43' W 074°02'0 0.0
2017-Sep-14 18:00N 40°43' W 074°02'0 0.0
2017-Sep-14 17:30N 40°43' W 074°02'0 0.0
2017-Sep-14 17:00N 40°43' W 074°02'0 0.0
2017-Sep-14 16:30N 40°43' W 074°02'0 0.0
2017-Sep-14 16:00N 40°43' W 074°02'0 0.1
2017-Sep-14 15:30N 40°43' W 074°02'0 0.0
2017-Sep-14 15:01N 40°43' W 074°02'0 0.2
2017-Sep-14 14:31N 40°43' W 074°02'0 0.1
2017-Sep-14 14:00N 40°43' W 074°02'0 0.2
2017-Sep-14 13:30N 40°43' W 074°02'0 0.1
2017-Sep-14 13:00N 40°43' W 074°02'0 0.1
2017-Sep-14 12:30N 40°43' W 074°02'0 0.1
2017-Sep-14 12:00N 40°43' W 074°02'0 0.1
2017-Sep-14 11:31N 40°43' W 074°02'0 0.0
2017-Sep-14 11:00N 40°43' W 074°02'0 0.1
2017-Sep-14 10:30N 40°43' W 074°02'0 0.2
2017-Sep-14 10:01N 40°43' W 074°02'1 0.2
2017-Sep-14 03:11N 40°44' W 074°02'1 7.1
2017-Sep-14 03:00N 40°43' W 074°01'0 1.0
2017-Sep-14 02:30N 40°43' W 074°02'1 1.1
2017-Sep-14 02:00N 40°43' W 074°01'1 1.3
2017-Sep-14 01:31N 40°43' W 074°02'1 1.2
2017-Sep-14 01:00N 40°43' W 074°01'1 1.2
2017-Sep-14 00:30N 40°43' W 074°02'1 1.3
2017-Sep-14 00:00N 40°43' W 074°01'0 0.0
2017-Sep-13 23:30N 40°43' W 074°01'0 0.0
2017-Sep-13 23:01N 40°43' W 074°01'0 0.0
2017-Sep-13 22:30N 40°43' W 074°01'0 0.0
2017-Sep-13 22:00N 40°43' W 074°01'0 0.0
2017-Sep-13 21:30N 40°43' W 074°01'0 0.0
2017-Sep-13 21:00N 40°43' W 074°01'0 0.0
2017-Sep-13 20:30N 40°43' W 074°01'0 0.0
2017-Sep-13 20:00N 40°43' W 074°01'0 0.0
2017-Sep-13 19:30N 40°43' W 074°01'0 0.0
2017-Sep-13 19:00N 40°43' W 074°01'0 0.0
2017-Sep-13 18:30N 40°43' W 074°01'0 0.0
2017-Sep-13 18:01N 40°43' W 074°01'0 0.0
2017-Sep-13 17:31N 40°43' W 074°01'0 0.1
2017-Sep-13 17:00N 40°43' W 074°01'0 0.0
2017-Sep-13 16:30N 40°43' W 074°01'0 0.0
2017-Sep-13 16:00N 40°43' W 074°01'0 0.0
2017-Sep-13 15:30N 40°43' W 074°01'0 0.0
2017-Sep-13 15:00N 40°43' W 074°01'0 0.0
2017-Sep-13 14:30N 40°43' W 074°01'0 0.1
2017-Sep-13 14:00N 40°43' W 074°01'0 0.1
2017-Sep-13 13:30N 40°43' W 074°01'0 0.0
2017-Sep-13 13:00N 40°43' W 074°01'0 0.0
2017-Sep-13 12:30N 40°43' W 074°01'0 0.0
2017-Sep-13 12:00N 40°43' W 074°01'0 0.1
2017-Sep-13 11:30N 40°43' W 074°01'0 0.1
2017-Sep-13 11:00N 40°43' W 074°01'0 0.0
2017-Sep-13 10:31N 40°43' W 074°01'1 0.1
2017-Sep-13 00:27N 40°44' W 074°02'2 5.0
2017-Sep-13 00:00N 40°46' W 074°01'4 7.0
2017-Sep-12 23:30N 40°43' W 074°02'0 0.1
2017-Sep-12 23:00N 40°43' W 074°02'0 0.1
2017-Sep-12 22:30N 40°43' W 074°02'0 0.1
2017-Sep-12 22:00N 40°43' W 074°02'0 0.2
2017-Sep-12 21:30N 40°43' W 074°02'0 0.0
2017-Sep-12 21:00N 40°43' W 074°02'0 0.2
2017-Sep-12 20:30N 40°43' W 074°02'0 0.3
2017-Sep-12 20:00N 40°43' W 074°02'0 0.2
2017-Sep-12 19:30N 40°43' W 074°02'0 0.2
2017-Sep-12 19:00N 40°43' W 074°02'0 0.1
2017-Sep-12 18:30N 40°43' W 074°02'0 0.0
2017-Sep-12 18:00N 40°43' W 074°02'0 0.2
2017-Sep-12 17:30N 40°43' W 074°02'0 0.1
2017-Sep-12 17:00N 40°43' W 074°02'0 0.1
2017-Sep-12 16:30N 40°43' W 074°02'0 0.2
2017-Sep-12 16:00N 40°43' W 074°02'0 0.2
2017-Sep-12 15:30N 40°43' W 074°02'0 0.0
2017-Sep-12 15:00N 40°43' W 074°02'0 0.1
2017-Sep-12 14:30N 40°43' W 074°02'0 0.1
2017-Sep-12 14:00N 40°43' W 074°02'0 0.1
2017-Sep-12 13:30N 40°43' W 074°02'0 0.0
2017-Sep-12 13:01N 40°43' W 074°02'0 0.1
2017-Sep-12 12:31N 40°43' W 074°02'0 0.2
2017-Sep-12 12:00N 40°43' W 074°02'0 0.1
2017-Sep-12 11:30N 40°43' W 074°02'0 0.2
2017-Sep-12 11:01N 40°43' W 074°02'0 0.1
2017-Sep-12 10:30N 40°43' W 074°02'0 0.1
2017-Sep-12 10:00N 40°43' W 074°02'1 0.2
2017-Sep-12 03:14N 40°44' W 074°02'1 5.8
2017-Sep-12 03:01N 40°43' W 074°01'1 1.3
2017-Sep-12 02:30N 40°43' W 074°02'1 1.3
2017-Sep-12 02:01N 40°43' W 074°01'1 1.1
2017-Sep-12 01:30N 40°43' W 074°02'1 1.1
2017-Sep-12 01:01N 40°43' W 074°01'  

Dump ship's entire track history